sensor_id;sensor_type;location;lat;lon;timestamp;P1;durP1;ratioP1;P2;durP2;ratioP2
67804;SDS011;54603;45.638;11.714;2022-07-29T00:01:20;4.60;;;3.00;;
67804;SDS011;54603;45.638;11.714;2022-07-29T00:03:46;4.80;;;2.80;;
67804;SDS011;54603;45.638;11.714;2022-07-29T00:06:12;4.00;;;3.00;;
67804;SDS011;54603;45.638;11.714;2022-07-29T00:08:38;5.20;;;2.90;;
67804;SDS011;54603;45.638;11.714;2022-07-29T00:11:04;5.60;;;3.00;;
67804;SDS011;54603;45.638;11.714;2022-07-29T00:13:29;4.10;;;2.90;;
67804;SDS011;54603;45.638;11.714;2022-07-29T00:15:55;4.60;;;3.00;;
67804;SDS011;54603;45.638;11.714;2022-07-29T00:18:20;3.60;;;2.90;;
67804;SDS011;54603;45.638;11.714;2022-07-29T00:20:46;5.20;;;2.90;;
67804;SDS011;54603;45.638;11.714;2022-07-29T00:23:11;2.90;;;2.60;;
67804;SDS011;54603;45.638;11.714;2022-07-29T00:25:37;3.10;;;2.50;;
67804;SDS011;54603;45.638;11.714;2022-07-29T00:28:03;3.70;;;3.00;;
67804;SDS011;54603;45.638;11.714;2022-07-29T00:30:28;5.70;;;2.80;;
67804;SDS011;54603;45.638;11.714;2022-07-29T00:32:54;3.20;;;2.40;;
67804;SDS011;54603;45.638;11.714;2022-07-29T00:35:20;3.90;;;2.90;;
67804;SDS011;54603;45.638;11.714;2022-07-29T00:38:04;2.80;;;2.50;;
67804;SDS011;54603;45.638;11.714;2022-07-29T00:40:29;2.90;;;2.60;;
67804;SDS011;54603;45.638;11.714;2022-07-29T00:42:55;4.00;;;2.50;;
67804;SDS011;54603;45.638;11.714;2022-07-29T00:45:21;3.90;;;2.50;;
67804;SDS011;54603;45.638;11.714;2022-07-29T00:47:49;3.00;;;2.20;;
67804;SDS011;54603;45.638;11.714;2022-07-29T00:50:15;3.80;;;2.30;;
67804;SDS011;54603;45.638;11.714;2022-07-29T00:52:41;2.10;;;1.90;;
67804;SDS011;54603;45.638;11.714;2022-07-29T00:55:11;4.50;;;2.40;;
67804;SDS011;54603;45.638;11.714;2022-07-29T00:57:38;3.20;;;2.20;;
67804;SDS011;54603;45.638;11.714;2022-07-29T01:00:06;3.50;;;2.10;;
67804;SDS011;54603;45.638;11.714;2022-07-29T01:02:33;5.20;;;2.30;;
67804;SDS011;54603;45.638;11.714;2022-07-29T01:04:59;4.50;;;2.10;;
67804;SDS011;54603;45.638;11.714;2022-07-29T01:07:26;3.90;;;2.10;;
67804;SDS011;54603;45.638;11.714;2022-07-29T01:09:53;2.40;;;1.80;;
67804;SDS011;54603;45.638;11.714;2022-07-29T01:12:21;2.10;;;1.90;;
67804;SDS011;54603;45.638;11.714;2022-07-29T01:14:49;3.40;;;2.10;;
67804;SDS011;54603;45.638;11.714;2022-07-29T01:23:28;4.60;;;2.20;;
67804;SDS011;54603;45.638;11.714;2022-07-29T01:29:02;4.50;;;1.90;;
67804;SDS011;54603;45.638;11.714;2022-07-29T01:34:56;3.60;;;2.10;;
67804;SDS011;54603;45.638;11.714;2022-07-29T01:37:31;2.70;;;1.90;;
67804;SDS011;54603;45.638;11.714;2022-07-29T01:40:02;2.70;;;2.10;;
67804;SDS011;54603;45.638;11.714;2022-07-29T01:42:34;4.10;;;1.90;;
67804;SDS011;54603;45.638;11.714;2022-07-29T01:45:18;3.10;;;2.10;;
67804;SDS011;54603;45.638;11.714;2022-07-29T01:48:06;2.50;;;1.90;;
67804;SDS011;54603;45.638;11.714;2022-07-29T01:51:18;3.80;;;2.20;;
67804;SDS011;54603;45.638;11.714;2022-07-29T01:53:50;2.20;;;2.00;;
67804;SDS011;54603;45.638;11.714;2022-07-29T01:56:21;3.00;;;2.10;;
67804;SDS011;54603;45.638;11.714;2022-07-29T01:58:48;5.10;;;1.90;;
67804;SDS011;54603;45.638;11.714;2022-07-29T02:01:14;2.50;;;1.80;;
67804;SDS011;54603;45.638;11.714;2022-07-29T02:03:42;2.20;;;1.70;;
67804;SDS011;54603;45.638;11.714;2022-07-29T02:06:09;4.10;;;2.00;;
67804;SDS011;54603;45.638;11.714;2022-07-29T02:08:36;2.70;;;1.90;;
67804;SDS011;54603;45.638;11.714;2022-07-29T02:11:03;3.00;;;1.90;;
67804;SDS011;54603;45.638;11.714;2022-07-29T02:13:29;2.30;;;2.10;;
67804;SDS011;54603;45.638;11.714;2022-07-29T02:15:56;3.90;;;2.00;;
67804;SDS011;54603;45.638;11.714;2022-07-29T02:18:22;4.10;;;1.90;;
67804;SDS011;54603;45.638;11.714;2022-07-29T02:20:50;3.50;;;1.90;;
67804;SDS011;54603;45.638;11.714;2022-07-29T02:23:19;2.20;;;1.80;;
67804;SDS011;54603;45.638;11.714;2022-07-29T02:25:50;2.90;;;2.10;;
67804;SDS011;54603;45.638;11.714;2022-07-29T02:28:18;3.00;;;2.00;;
67804;SDS011;54603;45.638;11.714;2022-07-29T02:30:44;3.80;;;1.70;;
67804;SDS011;54603;45.638;11.714;2022-07-29T02:33:12;2.50;;;2.10;;
67804;SDS011;54603;45.638;11.714;2022-07-29T02:35:39;2.10;;;1.80;;
67804;SDS011;54603;45.638;11.714;2022-07-29T02:38:06;2.20;;;1.80;;
67804;SDS011;54603;45.638;11.714;2022-07-29T02:40:51;2.20;;;2.00;;
67804;SDS011;54603;45.638;11.714;2022-07-29T02:43:18;2.60;;;2.00;;
67804;SDS011;54603;45.638;11.714;2022-07-29T02:45:45;2.40;;;1.90;;
67804;SDS011;54603;45.638;11.714;2022-07-29T02:48:13;2.30;;;1.70;;
67804;SDS011;54603;45.638;11.714;2022-07-29T02:50:44;5.00;;;1.80;;
67804;SDS011;54603;45.638;11.714;2022-07-29T02:53:16;12.70;;;2.00;;
67804;SDS011;54603;45.638;11.714;2022-07-29T02:55:45;3.30;;;1.90;;
67804;SDS011;54603;45.638;11.714;2022-07-29T02:58:14;4.70;;;2.10;;
67804;SDS011;54603;45.638;11.714;2022-07-29T03:00:41;3.20;;;2.10;;
67804;SDS011;54603;45.638;11.714;2022-07-29T03:03:09;2.70;;;1.90;;
67804;SDS011;54603;45.638;11.714;2022-07-29T03:05:37;6.30;;;1.90;;
67804;SDS011;54603;45.638;11.714;2022-07-29T03:08:04;3.30;;;1.80;;
67804;SDS011;54603;45.638;11.714;2022-07-29T03:10:31;2.50;;;2.10;;
67804;SDS011;54603;45.638;11.714;2022-07-29T03:12:57;4.10;;;1.90;;
67804;SDS011;54603;45.638;11.714;2022-07-29T03:15:23;2.40;;;2.20;;
67804;SDS011;54603;45.638;11.714;2022-07-29T03:17:49;2.60;;;2.00;;
67804;SDS011;54603;45.638;11.714;2022-07-29T03:20:16;3.20;;;1.80;;
67804;SDS011;54603;45.638;11.714;2022-07-29T03:22:42;4.80;;;2.10;;
67804;SDS011;54603;45.638;11.714;2022-07-29T03:25:14;4.10;;;1.80;;
67804;SDS011;54603;45.638;11.714;2022-07-29T03:27:41;4.00;;;2.00;;
67804;SDS011;54603;45.638;11.714;2022-07-29T03:30:08;2.20;;;1.80;;
67804;SDS011;54603;45.638;11.714;2022-07-29T03:32:34;5.10;;;1.90;;
67804;SDS011;54603;45.638;11.714;2022-07-29T03:35:00;1.90;;;1.80;;
67804;SDS011;54603;45.638;11.714;2022-07-29T03:37:26;2.90;;;1.90;;
67804;SDS011;54603;45.638;11.714;2022-07-29T03:39:52;2.50;;;2.00;;
67804;SDS011;54603;45.638;11.714;2022-07-29T03:42:19;4.30;;;1.90;;
67804;SDS011;54603;45.638;11.714;2022-07-29T03:44:47;2.30;;;1.90;;
67804;SDS011;54603;45.638;11.714;2022-07-29T03:47:13;2.70;;;2.00;;
67804;SDS011;54603;45.638;11.714;2022-07-29T03:49:40;2.90;;;1.80;;
67804;SDS011;54603;45.638;11.714;2022-07-29T03:52:06;3.10;;;2.20;;
67804;SDS011;54603;45.638;11.714;2022-07-29T03:54:35;2.90;;;1.90;;
67804;SDS011;54603;45.638;11.714;2022-07-29T03:57:07;4.80;;;2.10;;
67804;SDS011;54603;45.638;11.714;2022-07-29T03:59:36;2.20;;;1.90;;
67804;SDS011;54603;45.638;11.714;2022-07-29T04:02:03;3.50;;;2.10;;
67804;SDS011;54603;45.638;11.714;2022-07-29T04:04:33;5.20;;;2.00;;
67804;SDS011;54603;45.638;11.714;2022-07-29T04:06:59;8.10;;;2.00;;
67804;SDS011;54603;45.638;11.714;2022-07-29T04:09:25;3.40;;;2.00;;
67804;SDS011;54603;45.638;11.714;2022-07-29T04:11:51;3.80;;;1.80;;
67804;SDS011;54603;45.638;11.714;2022-07-29T04:14:18;4.50;;;1.90;;
67804;SDS011;54603;45.638;11.714;2022-07-29T04:16:43;5.10;;;1.90;;
67804;SDS011;54603;45.638;11.714;2022-07-29T04:19:09;3.30;;;2.10;;
67804;SDS011;54603;45.638;11.714;2022-07-29T04:21:38;4.50;;;2.00;;
67804;SDS011;54603;45.638;11.714;2022-07-29T04:24:05;2.30;;;2.00;;
67804;SDS011;54603;45.638;11.714;2022-07-29T04:26:31;5.20;;;1.80;;
67804;SDS011;54603;45.638;11.714;2022-07-29T04:28:57;2.00;;;1.80;;
67804;SDS011;54603;45.638;11.714;2022-07-29T04:31:22;2.40;;;2.00;;
67804;SDS011;54603;45.638;11.714;2022-07-29T04:33:48;2.30;;;1.80;;
67804;SDS011;54603;45.638;11.714;2022-07-29T04:36:14;3.10;;;1.90;;
67804;SDS011;54603;45.638;11.714;2022-07-29T04:38:39;3.80;;;1.90;;
67804;SDS011;54603;45.638;11.714;2022-07-29T04:41:05;2.40;;;1.80;;
67804;SDS011;54603;45.638;11.714;2022-07-29T04:43:32;3.10;;;1.90;;
67804;SDS011;54603;45.638;11.714;2022-07-29T04:45:58;3.10;;;2.10;;
67804;SDS011;54603;45.638;11.714;2022-07-29T04:48:25;3.00;;;2.10;;
67804;SDS011;54603;45.638;11.714;2022-07-29T04:50:51;3.80;;;2.20;;
67804;SDS011;54603;45.638;11.714;2022-07-29T04:53:17;3.90;;;2.00;;
67804;SDS011;54603;45.638;11.714;2022-07-29T04:55:42;5.70;;;2.10;;
67804;SDS011;54603;45.638;11.714;2022-07-29T04:58:10;2.50;;;2.20;;
67804;SDS011;54603;45.638;11.714;2022-07-29T05:00:35;5.90;;;2.30;;
67804;SDS011;54603;45.638;11.714;2022-07-29T05:03:01;4.90;;;2.20;;
67804;SDS011;54603;45.638;11.714;2022-07-29T05:05:27;3.50;;;2.00;;
67804;SDS011;54603;45.638;11.714;2022-07-29T05:07:53;4.90;;;2.20;;
67804;SDS011;54603;45.638;11.714;2022-07-29T05:10:19;2.30;;;2.10;;
67804;SDS011;54603;45.638;11.714;2022-07-29T05:12:44;3.80;;;2.20;;
67804;SDS011;54603;45.638;11.714;2022-07-29T05:15:10;4.20;;;2.20;;
67804;SDS011;54603;45.638;11.714;2022-07-29T05:17:35;3.10;;;2.10;;
67804;SDS011;54603;45.638;11.714;2022-07-29T05:20:01;4.10;;;2.20;;
67804;SDS011;54603;45.638;11.714;2022-07-29T05:22:26;4.10;;;2.30;;
67804;SDS011;54603;45.638;11.714;2022-07-29T05:24:52;2.30;;;2.00;;
67804;SDS011;54603;45.638;11.714;2022-07-29T05:27:18;4.00;;;2.50;;
67804;SDS011;54603;45.638;11.714;2022-07-29T05:29:44;4.00;;;2.20;;
67804;SDS011;54603;45.638;11.714;2022-07-29T05:32:09;2.70;;;2.30;;
67804;SDS011;54603;45.638;11.714;2022-07-29T05:34:35;3.30;;;2.10;;
67804;SDS011;54603;45.638;11.714;2022-07-29T05:37:00;3.00;;;2.00;;
67804;SDS011;54603;45.638;11.714;2022-07-29T05:39:27;5.20;;;2.40;;
67804;SDS011;54603;45.638;11.714;2022-07-29T05:41:52;3.40;;;2.20;;
67804;SDS011;54603;45.638;11.714;2022-07-29T05:44:18;4.00;;;2.10;;
67804;SDS011;54603;45.638;11.714;2022-07-29T05:46:43;5.20;;;2.60;;
67804;SDS011;54603;45.638;11.714;2022-07-29T05:49:09;6.70;;;2.60;;
67804;SDS011;54603;45.638;11.714;2022-07-29T05:51:35;3.00;;;2.40;;
67804;SDS011;54603;45.638;11.714;2022-07-29T05:54:00;4.50;;;2.70;;
67804;SDS011;54603;45.638;11.714;2022-07-29T05:56:26;4.90;;;2.70;;
67804;SDS011;54603;45.638;11.714;2022-07-29T05:58:52;3.40;;;2.50;;
67804;SDS011;54603;45.638;11.714;2022-07-29T06:01:18;5.60;;;2.70;;
67804;SDS011;54603;45.638;11.714;2022-07-29T06:03:44;3.40;;;2.60;;
67804;SDS011;54603;45.638;11.714;2022-07-29T06:06:10;3.70;;;2.30;;
67804;SDS011;54603;45.638;11.714;2022-07-29T06:08:39;3.70;;;2.40;;
67804;SDS011;54603;45.638;11.714;2022-07-29T06:11:15;3.90;;;2.40;;
67804;SDS011;54603;45.638;11.714;2022-07-29T06:13:46;4.90;;;2.30;;
67804;SDS011;54603;45.638;11.714;2022-07-29T06:16:17;3.30;;;2.40;;
67804;SDS011;54603;45.638;11.714;2022-07-29T06:18:57;5.70;;;2.90;;
67804;SDS011;54603;45.638;11.714;2022-07-29T06:21:26;3.80;;;2.40;;
67804;SDS011;54603;45.638;11.714;2022-07-29T06:23:53;4.60;;;2.40;;
67804;SDS011;54603;45.638;11.714;2022-07-29T06:26:21;5.50;;;2.30;;
67804;SDS011;54603;45.638;11.714;2022-07-29T06:28:48;2.80;;;2.30;;
67804;SDS011;54603;45.638;11.714;2022-07-29T06:31:13;3.40;;;2.20;;
67804;SDS011;54603;45.638;11.714;2022-07-29T06:33:39;2.50;;;2.30;;
67804;SDS011;54603;45.638;11.714;2022-07-29T06:36:05;3.00;;;2.50;;
67804;SDS011;54603;45.638;11.714;2022-07-29T06:38:32;2.60;;;2.20;;
67804;SDS011;54603;45.638;11.714;2022-07-29T06:40:58;4.30;;;2.50;;
67804;SDS011;54603;45.638;11.714;2022-07-29T06:43:28;5.10;;;2.60;;
67804;SDS011;54603;45.638;11.714;2022-07-29T06:45:57;3.20;;;2.10;;
67804;SDS011;54603;45.638;11.714;2022-07-29T06:48:24;3.30;;;2.50;;
67804;SDS011;54603;45.638;11.714;2022-07-29T06:50:50;4.70;;;2.30;;
67804;SDS011;54603;45.638;11.714;2022-07-29T06:53:15;5.50;;;2.20;;
67804;SDS011;54603;45.638;11.714;2022-07-29T06:55:41;4.40;;;2.30;;
67804;SDS011;54603;45.638;11.714;2022-07-29T06:58:07;3.30;;;2.40;;
67804;SDS011;54603;45.638;11.714;2022-07-29T07:00:34;4.10;;;2.40;;
67804;SDS011;54603;45.638;11.714;2022-07-29T07:03:00;3.00;;;2.20;;
67804;SDS011;54603;45.638;11.714;2022-07-29T07:05:26;6.70;;;2.20;;
67804;SDS011;54603;45.638;11.714;2022-07-29T07:07:52;2.50;;;2.10;;
67804;SDS011;54603;45.638;11.714;2022-07-29T07:10:18;3.10;;;2.40;;
67804;SDS011;54603;45.638;11.714;2022-07-29T07:12:43;3.00;;;2.00;;
67804;SDS011;54603;45.638;11.714;2022-07-29T07:15:09;5.10;;;2.20;;
67804;SDS011;54603;45.638;11.714;2022-07-29T07:17:35;3.40;;;2.50;;
67804;SDS011;54603;45.638;11.714;2022-07-29T07:20:00;2.80;;;2.10;;
67804;SDS011;54603;45.638;11.714;2022-07-29T07:22:26;3.60;;;2.40;;
67804;SDS011;54603;45.638;11.714;2022-07-29T07:24:51;2.80;;;2.10;;
67804;SDS011;54603;45.638;11.714;2022-07-29T07:27:17;2.90;;;2.20;;
67804;SDS011;54603;45.638;11.714;2022-07-29T07:29:43;2.90;;;2.10;;
67804;SDS011;54603;45.638;11.714;2022-07-29T07:32:09;2.10;;;1.90;;
67804;SDS011;54603;45.638;11.714;2022-07-29T07:34:34;3.40;;;2.20;;
67804;SDS011;54603;45.638;11.714;2022-07-29T07:37:00;2.60;;;2.30;;
67804;SDS011;54603;45.638;11.714;2022-07-29T07:39:26;3.60;;;2.10;;
67804;SDS011;54603;45.638;11.714;2022-07-29T07:41:51;3.30;;;2.50;;
67804;SDS011;54603;45.638;11.714;2022-07-29T07:44:17;4.30;;;2.20;;
67804;SDS011;54603;45.638;11.714;2022-07-29T07:46:43;2.80;;;2.20;;
67804;SDS011;54603;45.638;11.714;2022-07-29T07:49:10;4.40;;;2.10;;
67804;SDS011;54603;45.638;11.714;2022-07-29T07:51:36;2.70;;;2.30;;
67804;SDS011;54603;45.638;11.714;2022-07-29T07:54:02;2.70;;;2.30;;
67804;SDS011;54603;45.638;11.714;2022-07-29T07:56:27;2.50;;;2.30;;
67804;SDS011;54603;45.638;11.714;2022-07-29T07:58:53;2.70;;;2.20;;
67804;SDS011;54603;45.638;11.714;2022-07-29T08:01:18;3.40;;;2.50;;
67804;SDS011;54603;45.638;11.714;2022-07-29T08:03:48;3.40;;;2.20;;
67804;SDS011;54603;45.638;11.714;2022-07-29T08:06:16;3.00;;;2.30;;
67804;SDS011;54603;45.638;11.714;2022-07-29T08:08:42;2.20;;;2.00;;
67804;SDS011;54603;45.638;11.714;2022-07-29T08:11:07;3.40;;;2.30;;
67804;SDS011;54603;45.638;11.714;2022-07-29T08:13:33;5.00;;;2.30;;
67804;SDS011;54603;45.638;11.714;2022-07-29T08:15:59;3.20;;;2.40;;
67804;SDS011;54603;45.638;11.714;2022-07-29T08:18:36;2.90;;;2.20;;
67804;SDS011;54603;45.638;11.714;2022-07-29T08:21:02;3.80;;;2.30;;
67804;SDS011;54603;45.638;11.714;2022-07-29T08:23:27;2.50;;;1.80;;
67804;SDS011;54603;45.638;11.714;2022-07-29T08:26:00;2.40;;;2.20;;
67804;SDS011;54603;45.638;11.714;2022-07-29T08:28:26;2.90;;;2.10;;
67804;SDS011;54603;45.638;11.714;2022-07-29T08:30:52;2.50;;;2.30;;
67804;SDS011;54603;45.638;11.714;2022-07-29T08:33:17;3.00;;;2.40;;
67804;SDS011;54603;45.638;11.714;2022-07-29T08:35:43;3.00;;;2.50;;
67804;SDS011;54603;45.638;11.714;2022-07-29T08:38:09;5.60;;;2.50;;
67804;SDS011;54603;45.638;11.714;2022-07-29T08:40:35;4.50;;;2.50;;
67804;SDS011;54603;45.638;11.714;2022-07-29T08:43:06;3.70;;;2.60;;
67804;SDS011;54603;45.638;11.714;2022-07-29T08:48:10;4.60;;;2.60;;
67804;SDS011;54603;45.638;11.714;2022-07-29T08:50:37;4.30;;;2.70;;
67804;SDS011;54603;45.638;11.714;2022-07-29T08:53:03;5.10;;;2.70;;
67804;SDS011;54603;45.638;11.714;2022-07-29T08:55:29;6.50;;;2.40;;
67804;SDS011;54603;45.638;11.714;2022-07-29T08:57:55;4.10;;;2.50;;
67804;SDS011;54603;45.638;11.714;2022-07-29T09:00:21;5.00;;;2.70;;
67804;SDS011;54603;45.638;11.714;2022-07-29T09:02:48;3.20;;;2.60;;
67804;SDS011;54603;45.638;11.714;2022-07-29T09:05:16;3.70;;;2.60;;
67804;SDS011;54603;45.638;11.714;2022-07-29T09:07:42;4.90;;;2.90;;
67804;SDS011;54603;45.638;11.714;2022-07-29T09:10:09;4.40;;;2.60;;
67804;SDS011;54603;45.638;11.714;2022-07-29T09:12:35;3.60;;;2.60;;
67804;SDS011;54603;45.638;11.714;2022-07-29T09:15:00;3.50;;;2.40;;
67804;SDS011;54603;45.638;11.714;2022-07-29T09:17:39;3.50;;;2.40;;
67804;SDS011;54603;45.638;11.714;2022-07-29T09:20:18;4.00;;;2.60;;
67804;SDS011;54603;45.638;11.714;2022-07-29T09:22:45;3.50;;;2.70;;
67804;SDS011;54603;45.638;11.714;2022-07-29T09:28:15;4.20;;;2.70;;
67804;SDS011;54603;45.638;11.714;2022-07-29T09:30:55;4.20;;;2.60;;
67804;SDS011;54603;45.638;11.714;2022-07-29T09:33:24;5.60;;;3.00;;
67804;SDS011;54603;45.638;11.714;2022-07-29T09:36:02;4.00;;;2.80;;
67804;SDS011;54603;45.638;11.714;2022-07-29T09:38:29;4.40;;;2.80;;
67804;SDS011;54603;45.638;11.714;2022-07-29T09:40:55;2.90;;;2.60;;
67804;SDS011;54603;45.638;11.714;2022-07-29T09:43:21;3.90;;;2.80;;
67804;SDS011;54603;45.638;11.714;2022-07-29T09:45:49;3.40;;;2.60;;
67804;SDS011;54603;45.638;11.714;2022-07-29T09:48:16;3.60;;;2.70;;
67804;SDS011;54603;45.638;11.714;2022-07-29T09:50:49;5.00;;;2.60;;
67804;SDS011;54603;45.638;11.714;2022-07-29T09:53:31;2.70;;;2.40;;
67804;SDS011;54603;45.638;11.714;2022-07-29T09:56:07;3.40;;;2.50;;
67804;SDS011;54603;45.638;11.714;2022-07-29T09:58:35;4.80;;;2.80;;
67804;SDS011;54603;45.638;11.714;2022-07-29T10:01:01;4.90;;;2.70;;
67804;SDS011;54603;45.638;11.714;2022-07-29T10:03:27;3.10;;;2.60;;
67804;SDS011;54603;45.638;11.714;2022-07-29T10:06:08;3.60;;;2.40;;
67804;SDS011;54603;45.638;11.714;2022-07-29T10:08:35;4.40;;;2.50;;
67804;SDS011;54603;45.638;11.714;2022-07-29T10:11:09;3.60;;;2.80;;
67804;SDS011;54603;45.638;11.714;2022-07-29T10:13:38;3.70;;;3.00;;
67804;SDS011;54603;45.638;11.714;2022-07-29T10:16:06;4.00;;;2.50;;
67804;SDS011;54603;45.638;11.714;2022-07-29T10:18:32;4.20;;;2.60;;
67804;SDS011;54603;45.638;11.714;2022-07-29T10:20:57;3.30;;;2.50;;
67804;SDS011;54603;45.638;11.714;2022-07-29T10:23:26;3.60;;;2.80;;
67804;SDS011;54603;45.638;11.714;2022-07-29T10:25:53;3.30;;;2.60;;
67804;SDS011;54603;45.638;11.714;2022-07-29T10:28:19;4.70;;;2.80;;
67804;SDS011;54603;45.638;11.714;2022-07-29T10:30:45;5.70;;;2.90;;
67804;SDS011;54603;45.638;11.714;2022-07-29T10:33:28;4.00;;;2.70;;
67804;SDS011;54603;45.638;11.714;2022-07-29T10:41:12;5.40;;;3.00;;
67804;SDS011;54603;45.638;11.714;2022-07-29T10:44:03;5.50;;;3.10;;
67804;SDS011;54603;45.638;11.714;2022-07-29T10:46:37;4.90;;;2.70;;
67804;SDS011;54603;45.638;11.714;2022-07-29T10:49:16;4.60;;;2.60;;
67804;SDS011;54603;45.638;11.714;2022-07-29T10:52:07;5.30;;;2.90;;
67804;SDS011;54603;45.638;11.714;2022-07-29T11:05:28;3.30;;;2.50;;
67804;SDS011;54603;45.638;11.714;2022-07-29T11:11:34;4.30;;;2.60;;
67804;SDS011;54603;45.638;11.714;2022-07-29T11:16:12;6.80;;;2.50;;
67804;SDS011;54603;45.638;11.714;2022-07-29T11:21:37;8.70;;;2.50;;
67804;SDS011;54603;45.638;11.714;2022-07-29T11:24:16;4.10;;;2.40;;
67804;SDS011;54603;45.638;11.714;2022-07-29T11:26:44;5.80;;;2.70;;
67804;SDS011;54603;45.638;11.714;2022-07-29T11:29:19;6.60;;;2.40;;
67804;SDS011;54603;45.638;11.714;2022-07-29T11:31:48;4.00;;;2.40;;
67804;SDS011;54603;45.638;11.714;2022-07-29T11:34:20;3.20;;;2.20;;
67804;SDS011;54603;45.638;11.714;2022-07-29T11:39:41;3.10;;;2.40;;
67804;SDS011;54603;45.638;11.714;2022-07-29T11:44:54;23.80;;;2.80;;
67804;SDS011;54603;45.638;11.714;2022-07-29T11:47:32;3.30;;;2.30;;
67804;SDS011;54603;45.638;11.714;2022-07-29T11:50:06;3.40;;;2.20;;
67804;SDS011;54603;45.638;11.714;2022-07-29T11:52:35;5.80;;;2.30;;
67804;SDS011;54603;45.638;11.714;2022-07-29T11:55:08;2.50;;;2.20;;
67804;SDS011;54603;45.638;11.714;2022-07-29T11:57:35;4.20;;;2.30;;
67804;SDS011;54603;45.638;11.714;2022-07-29T12:00:32;7.60;;;2.40;;
67804;SDS011;54603;45.638;11.714;2022-07-29T12:03:14;2.90;;;2.20;;
67804;SDS011;54603;45.638;11.714;2022-07-29T12:05:50;2.80;;;2.50;;
67804;SDS011;54603;45.638;11.714;2022-07-29T12:08:23;4.80;;;2.60;;
67804;SDS011;54603;45.638;11.714;2022-07-29T12:10:53;2.30;;;2.10;;
67804;SDS011;54603;45.638;11.714;2022-07-29T12:13:22;4.90;;;2.30;;
67804;SDS011;54603;45.638;11.714;2022-07-29T12:16:08;3.00;;;2.30;;
67804;SDS011;54603;45.638;11.714;2022-07-29T12:18:36;3.80;;;2.20;;
67804;SDS011;54603;45.638;11.714;2022-07-29T12:21:01;3.10;;;2.40;;
67804;SDS011;54603;45.638;11.714;2022-07-29T12:23:32;3.50;;;2.30;;
67804;SDS011;54603;45.638;11.714;2022-07-29T12:25:58;2.40;;;2.20;;
67804;SDS011;54603;45.638;11.714;2022-07-29T12:28:24;3.20;;;2.20;;
67804;SDS011;54603;45.638;11.714;2022-07-29T12:30:51;2.40;;;2.10;;
67804;SDS011;54603;45.638;11.714;2022-07-29T12:33:18;3.50;;;2.30;;
67804;SDS011;54603;45.638;11.714;2022-07-29T12:35:52;2.60;;;2.00;;
67804;SDS011;54603;45.638;11.714;2022-07-29T12:38:22;3.10;;;2.20;;
67804;SDS011;54603;45.638;11.714;2022-07-29T12:40:54;3.00;;;2.20;;
67804;SDS011;54603;45.638;11.714;2022-07-29T12:43:30;7.20;;;2.10;;
67804;SDS011;54603;45.638;11.714;2022-07-29T12:46:12;3.30;;;2.30;;
67804;SDS011;54603;45.638;11.714;2022-07-29T12:48:55;2.30;;;2.10;;
67804;SDS011;54603;45.638;11.714;2022-07-29T12:51:35;2.10;;;1.70;;
67804;SDS011;54603;45.638;11.714;2022-07-29T12:54:14;2.20;;;2.00;;
67804;SDS011;54603;45.638;11.714;2022-07-29T12:56:41;2.40;;;2.20;;
67804;SDS011;54603;45.638;11.714;2022-07-29T12:59:20;2.50;;;2.30;;
67804;SDS011;54603;45.638;11.714;2022-07-29T13:01:47;3.30;;;2.10;;
67804;SDS011;54603;45.638;11.714;2022-07-29T13:04:27;2.30;;;2.00;;
67804;SDS011;54603;45.638;11.714;2022-07-29T13:07:04;2.20;;;2.00;;
67804;SDS011;54603;45.638;11.714;2022-07-29T13:09:36;4.10;;;2.10;;
67804;SDS011;54603;45.638;11.714;2022-07-29T13:12:07;2.40;;;1.90;;
67804;SDS011;54603;45.638;11.714;2022-07-29T13:14:36;2.70;;;1.90;;
67804;SDS011;54603;45.638;11.714;2022-07-29T13:17:12;2.30;;;2.00;;
67804;SDS011;54603;45.638;11.714;2022-07-29T13:19:51;2.10;;;1.90;;
67804;SDS011;54603;45.638;11.714;2022-07-29T13:22:31;2.20;;;1.90;;
67804;SDS011;54603;45.638;11.714;2022-07-29T13:24:58;2.60;;;1.90;;
67804;SDS011;54603;45.638;11.714;2022-07-29T13:27:28;2.40;;;2.20;;
67804;SDS011;54603;45.638;11.714;2022-07-29T13:30:00;2.50;;;2.20;;
67804;SDS011;54603;45.638;11.714;2022-07-29T13:32:31;2.70;;;2.00;;
67804;SDS011;54603;45.638;11.714;2022-07-29T13:35:00;2.50;;;1.80;;
67804;SDS011;54603;45.638;11.714;2022-07-29T13:37:27;3.20;;;2.10;;
67804;SDS011;54603;45.638;11.714;2022-07-29T13:39:55;2.60;;;1.90;;
67804;SDS011;54603;45.638;11.714;2022-07-29T13:42:22;2.10;;;1.90;;
67804;SDS011;54603;45.638;11.714;2022-07-29T13:44:50;2.40;;;2.00;;
67804;SDS011;54603;45.638;11.714;2022-07-29T13:47:17;2.10;;;1.90;;
67804;SDS011;54603;45.638;11.714;2022-07-29T13:49:49;2.10;;;1.90;;
67804;SDS011;54603;45.638;11.714;2022-07-29T13:52:17;2.00;;;1.80;;
67804;SDS011;54603;45.638;11.714;2022-07-29T13:54:43;5.40;;;2.00;;
67804;SDS011;54603;45.638;11.714;2022-07-29T13:57:09;2.40;;;2.00;;
67804;SDS011;54603;45.638;11.714;2022-07-29T13:59:39;2.10;;;1.90;;
67804;SDS011;54603;45.638;11.714;2022-07-29T14:02:05;2.10;;;1.90;;
67804;SDS011;54603;45.638;11.714;2022-07-29T14:04:32;2.40;;;1.70;;
67804;SDS011;54603;45.638;11.714;2022-07-29T14:06:58;2.50;;;1.70;;
67804;SDS011;54603;45.638;11.714;2022-07-29T14:09:24;9.10;;;1.90;;
67804;SDS011;54603;45.638;11.714;2022-07-29T14:11:49;4.30;;;2.10;;
67804;SDS011;54603;45.638;11.714;2022-07-29T14:14:16;6.30;;;2.00;;
67804;SDS011;54603;45.638;11.714;2022-07-29T14:16:42;2.60;;;2.20;;
67804;SDS011;54603;45.638;11.714;2022-07-29T14:19:08;2.60;;;1.90;;
67804;SDS011;54603;45.638;11.714;2022-07-29T14:21:33;2.30;;;2.00;;
67804;SDS011;54603;45.638;11.714;2022-07-29T14:23:59;3.00;;;1.80;;
67804;SDS011;54603;45.638;11.714;2022-07-29T14:26:25;6.80;;;2.10;;
67804;SDS011;54603;45.638;11.714;2022-07-29T14:28:51;5.10;;;2.00;;
67804;SDS011;54603;45.638;11.714;2022-07-29T14:31:16;3.90;;;2.10;;
67804;SDS011;54603;45.638;11.714;2022-07-29T14:33:42;2.70;;;1.90;;
67804;SDS011;54603;45.638;11.714;2022-07-29T14:36:08;2.30;;;2.00;;
67804;SDS011;54603;45.638;11.714;2022-07-29T14:38:34;4.20;;;1.80;;
67804;SDS011;54603;45.638;11.714;2022-07-29T14:41:02;4.50;;;2.20;;
67804;SDS011;54603;45.638;11.714;2022-07-29T14:43:28;2.60;;;2.00;;
67804;SDS011;54603;45.638;11.714;2022-07-29T14:45:53;4.50;;;1.90;;
67804;SDS011;54603;45.638;11.714;2022-07-29T14:48:19;3.00;;;1.80;;
67804;SDS011;54603;45.638;11.714;2022-07-29T14:50:44;3.80;;;2.00;;
67804;SDS011;54603;45.638;11.714;2022-07-29T14:53:10;5.60;;;2.20;;
67804;SDS011;54603;45.638;11.714;2022-07-29T14:55:38;3.30;;;2.00;;
67804;SDS011;54603;45.638;11.714;2022-07-29T14:58:04;3.50;;;2.10;;
67804;SDS011;54603;45.638;11.714;2022-07-29T15:00:30;3.50;;;2.00;;
67804;SDS011;54603;45.638;11.714;2022-07-29T15:02:57;6.70;;;2.20;;
67804;SDS011;54603;45.638;11.714;2022-07-29T15:05:24;2.40;;;2.00;;
67804;SDS011;54603;45.638;11.714;2022-07-29T15:07:50;11.20;;;2.50;;
67804;SDS011;54603;45.638;11.714;2022-07-29T15:10:16;2.20;;;1.90;;
67804;SDS011;54603;45.638;11.714;2022-07-29T15:12:41;2.50;;;1.80;;
67804;SDS011;54603;45.638;11.714;2022-07-29T15:15:07;3.90;;;2.10;;
67804;SDS011;54603;45.638;11.714;2022-07-29T15:17:33;3.30;;;1.80;;
67804;SDS011;54603;45.638;11.714;2022-07-29T15:19:59;2.80;;;2.20;;
67804;SDS011;54603;45.638;11.714;2022-07-29T15:22:25;3.80;;;2.10;;
67804;SDS011;54603;45.638;11.714;2022-07-29T15:24:50;2.50;;;2.00;;
67804;SDS011;54603;45.638;11.714;2022-07-29T15:27:16;4.10;;;2.20;;
67804;SDS011;54603;45.638;11.714;2022-07-29T15:29:41;4.20;;;2.30;;